Time;durP1;ratioP1;P1;durP2;ratioP2;P2;SDS_P1;SDS_P2;PMS_P1;PMS_P2;Temp;Humidity;BMP_temperature;BMP_pressure;BME280_temperature;BME280_humidity;BME280_pressure;Samples;Min_cycle;Max_cycle;Signal;HPM_P1;HPM_P2
2022/05/13 00:00:17;;;;;;;16.35;15.65;;;;;;;-141.02;100.00;82483.09;5153399;27;20676;-70
2022/05/13 00:02:44;;;;;;;16.20;15.50;;;;;;;-141.02;100.00;82553.03;5153674;27;20199;-70
2022/05/13 00:05:12;;;;;;;15.90;15.20;;;;;;;-141.02;100.00;82578.28;5153352;27;20654;-70
2022/05/13 00:07:39;;;;;;;16.17;15.48;;;;;;;-141.02;100.00;82595.75;5153257;27;20314;-70
2022/05/13 00:10:07;;;;;;;16.48;15.77;;;;;;;-141.02;100.00;82615.16;5153290;27;20699;-70
2022/05/13 00:12:38;;;;;;;15.88;15.18;;;;;;;-141.02;100.00;82615.16;5153234;27;20244;-71
2022/05/13 00:15:09;;;;;;;16.00;15.30;;;;;;;-141.02;100.00;82677.31;5154101;27;20188;-70
2022/05/13 00:17:36;;;;;;;16.20;15.50;;;;;;;-141.02;100.00;82708.41;5153267;27;20634;-70
2022/05/13 00:20:05;;;;;;;16.30;15.60;;;;;;;-141.02;100.00;82679.28;5153432;27;20218;-70
2022/05/13 00:22:32;;;;;;;16.65;15.95;;;;;;;-141.02;100.00;82708.41;5153152;27;20282;-70
2022/05/13 00:24:59;;;;;;;16.80;16.10;;;;;;;-141.02;100.00;82704.53;5153485;27;20253;-70
2022/05/13 00:27:26;;;;;;;16.42;15.73;;;;;;;-141.02;100.00;82743.38;5153354;27;20228;-70
2022/05/13 00:29:53;;;;;;;16.20;15.50;;;;;;;-141.02;100.00;82741.44;5153420;27;20271;-70
2022/05/13 00:32:21;;;;;;;16.40;15.70;;;;;;;-141.02;100.00;82712.28;5156853;27;20671;-70
2022/05/13 00:34:49;;;;;;;16.08;15.38;;;;;;;-141.02;100.00;82731.72;5156720;27;20690;-70
2022/05/13 00:37:17;;;;;;;15.88;15.18;;;;;;;-141.02;100.00;82758.91;5156719;27;20191;-70
2022/05/13 00:39:45;;;;;;;16.17;15.48;;;;;;;-141.02;100.00;82774.44;5157083;27;20196;-70
2022/05/13 00:42:17;;;;;;;16.10;15.40;;;;;;;-141.02;100.00;82852.16;5156704;27;20188;-70
2022/05/13 00:44:45;;;;;;;16.17;15.48;;;;;;;-141.02;100.00;82801.63;5156666;27;20219;-70
2022/05/13 00:47:13;;;;;;;16.50;15.80;;;;;;;-141.02;100.00;82966.75;5156570;27;20772;-70
2022/05/13 00:49:43;;;;;;;16.20;15.50;;;;;;;-141.02;100.00;83071.66;5156844;27;20188;-70
2022/05/13 00:52:11;;;;;;;16.05;15.35;;;;;;;-141.02;100.00;83060.00;5156788;27;20279;-70
2022/05/13 00:54:41;;;;;;;16.38;15.68;;;;;;;-141.02;100.00;83091.06;5156766;27;20230;-70
2022/05/13 00:57:11;;;;;;;15.10;14.50;;;;;;;-141.02;100.00;84435.59;5156409;27;20274;-70
2022/05/13 00:59:39;;;;;;;15.10;14.50;;;;;;;-141.02;100.00;83145.47;5157461;27;20206;-70
2022/05/13 01:02:07;;;;;;;15.30;14.70;;;;;;;-141.02;100.00;83143.53;5156632;27;20191;-70
2022/05/13 01:04:36;;;;;;;14.82;14.23;;;;;;;-141.02;100.00;83213.47;5156316;27;20669;-70
2022/05/13 01:07:09;;;;;;;15.57;14.98;;;;;;;-141.02;100.00;83166.84;5156080;27;20311;-70
2022/05/13 01:09:41;;;;;;;15.43;14.82;;;;;;;-141.02;100.00;83129.94;5156197;27;20568;-70
2022/05/13 01:12:12;;;;;;;15.02;14.43;;;;;;;-141.02;100.00;83116.31;5156157;27;20273;-70
2022/05/13 01:14:43;;;;;;;14.60;14.10;;;;;;;-141.02;100.00;83190.16;5156371;27;20204;-70
2022/05/13 01:20:08;;;;;;;15.20;14.60;;;;;;;-141.02;100.00;83310.59;5156356;27;20183;-70
2022/05/13 01:22:43;;;;;;;14.88;14.32;;;;;;;-141.02;100.00;83318.38;5156231;27;20238;-70
2022/05/13 01:25:12;;;;;;;15.32;14.73;;;;;;;-141.02;100.00;83269.78;5155884;27;20187;-70
2022/05/13 01:27:41;;;;;;;15.25;14.65;;;;;;;-141.02;100.00;83178.50;5156061;27;20231;-70
2022/05/13 01:30:10;;;;;;;15.60;15.00;;;;;;;-141.02;100.00;83201.81;5156044;27;20279;-70
2022/05/13 01:32:37;;;;;;;15.68;15.07;;;;;;;-141.02;100.00;83221.22;5155817;27;20287;-71
2022/05/13 01:35:05;;;;;;;15.02;14.43;;;;;;;-141.02;100.00;83207.63;5156069;27;20267;-70
2022/05/13 01:37:33;;;;;;;15.15;14.55;;;;;;;-141.02;100.00;83225.13;5156393;27;20195;-70
2022/05/13 01:40:02;;;;;;;15.73;15.13;;;;;;;-141.02;100.00;83302.81;5155549;27;20753;-70
2022/05/13 01:42:29;;;;;;;15.43;14.82;;;;;;;-141.02;100.00;83382.47;5155489;27;20564;-70
2022/05/13 01:44:56;;;;;;;15.20;14.60;;;;;;;-141.02;100.00;83438.81;5155791;27;20222;-70
2022/05/13 01:47:24;;;;;;;14.70;14.20;;;;;;;-141.02;100.00;83466.00;5155306;27;20335;-70
2022/05/13 01:49:51;;;;;;;15.15;14.55;;;;;;;-141.02;100.00;83438.81;5155422;27;20248;-70
2022/05/13 01:52:18;;;;;;;15.50;14.90;;;;;;;-141.02;100.00;83493.22;5155364;27;20192;-70
2022/05/13 01:54:45;;;;;;;15.65;15.05;;;;;;;-141.02;100.00;83605.91;5155204;27;20199;-70
2022/05/13 01:57:14;;;;;;;15.20;14.60;;;;;;;-141.02;100.00;83726.34;5155526;27;20235;-70
2022/05/13 01:59:41;;;;;;;15.02;14.43;;;;;;;-141.02;100.00;83839.03;5155145;27;20657;-70
2022/05/13 02:02:08;;;;;;;15.00;14.40;;;;;;;-141.02;100.00;83858.47;5155135;27;20744;-70
2022/05/13 02:04:34;;;;;;;15.50;14.90;;;;;;;-141.02;100.00;83936.19;5155374;27;20280;-70
2022/05/13 02:07:01;;;;;;;15.30;14.70;;;;;;;-141.02;100.00;83986.72;5155268;27;20306;-70
2022/05/13 02:09:28;;;;;;;15.40;14.80;;;;;;;-141.02;100.00;84011.97;5154979;27;20339;-70
2022/05/13 02:11:55;;;;;;;15.10;14.50;;;;;;;-141.02;100.00;83996.44;5154877;27;20725;-70
2022/05/13 02:14:24;;;;;;;15.68;15.07;;;;;;;-141.02;100.00;83858.47;5154945;27;20199;-70
2022/05/13 02:16:51;;;;;;;15.45;14.85;;;;;;;-141.02;100.00;83969.22;5155089;27;20227;-70
2022/05/13 02:19:18;;;;;;;15.13;14.52;;;;;;;-141.02;100.00;84010.03;5154819;27;20192;-70
2022/05/13 02:21:45;;;;;;;15.63;15.02;;;;;;;-141.02;100.00;83984.78;5154780;27;20691;-70
2022/05/13 02:24:12;;;;;;;15.35;14.75;;;;;;;-141.02;100.00;84031.41;5154662;27;20234;-70
2022/05/13 02:26:39;;;;;;;15.35;14.75;;;;;;;-141.02;100.00;84033.34;5154628;27;20279;-70
2022/05/13 02:29:06;;;;;;;15.40;14.80;;;;;;;-141.02;100.00;83986.72;5154617;27;20202;-70
2022/05/13 02:31:35;;;;;;;15.48;14.88;;;;;;;-141.02;100.00;83920.66;5154873;27;20274;-70
2022/05/13 02:34:02;;;;;;;15.60;15.00;;;;;;;-141.02;100.00;83924.53;5154435;27;20227;-70
2022/05/13 02:36:29;;;;;;;15.90;15.30;;;;;;;-141.02;100.00;83932.31;5154737;27;20198;-70
2022/05/13 02:38:56;;;;;;;15.20;14.60;;;;;;;-141.02;100.00;83901.22;5154734;27;20286;-70
2022/05/13 02:41:23;;;;;;;15.32;14.73;;;;;;;-141.02;100.00;83928.44;5154375;27;20192;-70
2022/05/13 02:43:52;;;;;;;15.55;14.95;;;;;;;-141.02;100.00;83980.88;5154634;27;20191;-70
2022/05/13 02:46:22;;;;;;;15.55;14.95;;;;;;;-141.02;100.00;83977.00;5154629;27;20202;-70
2022/05/13 02:48:51;;;;;;;15.35;14.75;;;;;;;-141.02;100.00;83959.50;5154197;27;20317;-70
2022/05/13 02:51:18;;;;;;;15.38;14.77;;;;;;;-141.02;100.00;84011.97;5155352;27;20283;-70
2022/05/13 02:53:46;;;;;;;15.27;14.68;;;;;;;-141.02;100.00;84068.31;5154089;27;20199;-70
2022/05/13 02:56:13;;;;;;;15.45;14.85;;;;;;;-141.02;100.00;84111.06;5154439;27;20279;-70
2022/05/13 02:58:41;;;;;;;16.17;15.48;;;;;;;-141.02;100.00;84097.47;5154059;27;20719;-70
2022/05/13 03:01:10;;;;;;;15.80;15.20;;;;;;;-141.02;100.00;84118.84;5154406;27;20271;-70
2022/05/13 03:03:39;;;;;;;15.50;14.90;;;;;;;-141.02;100.00;84091.66;5153978;27;20657;-70
2022/05/13 03:06:08;;;;;;;15.60;15.00;;;;;;;-141.02;100.00;84056.66;5153984;27;20231;-70
2022/05/13 03:08:35;;;;;;;15.80;15.20;;;;;;;-141.02;100.00;84033.34;5153889;27;20223;-70
2022/05/13 03:11:03;;;;;;;15.90;15.30;;;;;;;-141.02;100.00;84010.03;5154189;27;20290;-70
2022/05/13 03:13:31;;;;;;;15.75;15.15;;;;;;;-141.02;100.00;84033.34;5153855;27;20196;-70
2022/05/13 03:16:02;;;;;;;15.45;14.85;;;;;;;-141.02;100.00;83975.06;5153863;27;20280;-70
2022/05/13 03:18:29;;;;;;;15.25;14.65;;;;;;;-141.02;100.00;83982.84;5154198;27;20188;-70
2022/05/13 03:20:56;;;;;;;15.27;14.68;;;;;;;-141.02;100.00;84010.03;5153729;27;20207;-71
2022/05/13 03:23:25;;;;;;;15.20;14.60;;;;;;;-141.02;100.00;84095.53;5154104;27;20191;-70
2022/05/13 03:25:52;;;;;;;15.23;14.63;;;;;;;-141.02;100.00;84099.41;5153724;27;20188;-70
2022/05/13 03:28:19;;;;;;;14.75;14.25;;;;;;;-141.02;100.00;84146.06;5153594;27;20314;-70
2022/05/13 03:30:46;;;;;;;14.05;13.55;;;;;;;-141.02;100.00;84151.88;5153705;27;20669;-70
2022/05/13 03:33:13;;;;;;;15.40;14.80;;;;;;;-141.02;100.00;84126.63;5153670;27;20312;-70
2022/05/13 03:35:40;;;;;;;14.88;14.35;;;;;;;-141.02;100.00;84101.38;5153625;27;20231;-70
2022/05/13 03:38:07;;;;;;;15.15;14.55;;;;;;;-141.02;100.00;84060.56;5153629;27;20282;-70
2022/05/13 03:40:37;;;;;;;15.35;14.75;;;;;;;-141.02;100.00;83934.25;5153575;27;20278;-70
2022/05/13 03:43:05;;;;;;;15.52;14.93;;;;;;;-141.02;100.00;83788.53;5154390;27;20191;-70
2022/05/13 03:45:35;;;;;;;16.13;15.43;;;;;;;-141.02;100.00;83609.78;5153811;27;20203;-70
2022/05/13 03:48:03;;;;;;;16.05;15.35;;;;;;;-141.02;100.00;83489.31;5153497;27;20708;-70
2022/05/13 03:50:30;;;;;;;16.02;15.32;;;;;;;-141.02;100.00;83368.88;5153464;27;20287;-70
2022/05/13 03:52:57;;;;;;;16.23;15.52;;;;;;;-141.02;100.00;84208.25;5153477;27;20653;-70
2022/05/13 03:55:24;;;;;;;16.38;15.68;;;;;;;-141.02;100.00;83236.78;5153502;27;20282;-70
2022/05/13 03:57:53;;;;;;;15.88;15.18;;;;;;;-141.02;100.00;83225.13;5153691;27;20211;-70
2022/05/13 04:00:20;;;;;;;16.10;15.40;;;;;;;-141.02;100.00;83127.97;5153734;27;20626;-72
2022/05/13 04:02:47;;;;;;;16.30;15.60;;;;;;;-141.02;100.00;83054.16;5153658;27;20192;-70
2022/05/13 04:10:44;;;;;;;17.13;16.33;;;;;;;-141.02;100.00;55844.97;5157985;27;20235;-70
2022/05/13 04:16:07;;;;;;;17.60;16.70;;;;;;;-141.02;82.65;82576.31;5157901;27;20179;-70
2022/05/13 04:18:36;;;;;;;17.85;16.95;;;;;;;-141.02;75.53;82479.22;5157524;27;20190;-70
2022/05/13 04:21:04;;;;;;;17.27;16.40;;;;;;;-141.02;75.08;82428.72;5157404;27;20192;-70
2022/05/13 04:23:32;;;;;;;17.45;16.55;;;;;;;-141.02;74.87;82321.91;5157064;27;20198;-70
2022/05/13 04:25:59;;;;;;;17.38;16.48;;;;;;;-141.02;73.22;82362.69;5157055;27;20196;-70
2022/05/13 04:28:28;;;;;;;17.23;16.42;;;;;;;-141.02;77.75;82230.63;5157294;27;20310;-70
2022/05/13 04:30:56;;;;;;;16.10;15.40;;;;;;;-141.02;86.11;82450.06;5157265;27;20200;-70
2022/05/13 04:33:22;;;;;;;16.60;15.80;;;;;;;-141.02;84.14;82453.97;5157021;27;20672;-70
2022/05/13 04:35:49;;;;;;;16.48;15.77;;;;;;;-141.02;79.50;82405.41;5157187;27;20279;-77
2022/05/13 04:38:17;;;;;;;16.98;16.17;;;;;;;-141.02;73.67;82323.84;5156770;27;20765;-70
2022/05/13 04:40:43;;;;;;;17.05;16.25;;;;;;;-141.02;65.12;82195.66;5157050;27;20278;-70
2022/05/13 04:43:09;;;;;;;16.98;16.17;;;;;;;-141.02;61.46;82102.44;5156716;27;20286;-70
2022/05/13 04:45:38;;;;;;;16.90;16.10;;;;;;;-141.02;61.34;82094.66;5156960;27;20283;-70
2022/05/13 04:48:16;;;;;;;16.67;15.88;;;;;;;-141.02;61.08;82102.44;5156537;27;20667;-70
2022/05/13 04:50:46;;;;;;;16.85;16.05;;;;;;;-141.02;62.37;82098.56;5156902;27;20215;-70
2022/05/13 04:53:13;;;;;;;16.90;16.10;;;;;;;-141.02;62.11;82057.78;5156842;27;20188;-70
2022/05/13 04:55:40;;;;;;;16.95;16.15;;;;;;;-141.02;61.37;81989.81;5156421;27;20659;-70
2022/05/13 04:58:08;;;;;;;17.20;16.40;;;;;;;-141.02;59.50;82009.22;5156430;27;20199;-70
2022/05/13 05:00:35;;;;;;;17.35;16.55;;;;;;;-141.02;59.16;82172.34;5156633;27;20199;-71
2022/05/13 05:03:04;;;;;;;17.35;16.55;;;;;;;-141.02;60.01;82015.06;5156325;27;20235;-70
2022/05/13 05:05:31;;;;;;;17.13;16.33;;;;;;;-141.02;59.90;81995.63;5156594;27;20254;-70
2022/05/13 05:07:58;;;;;;;17.77;16.98;;;;;;;-141.02;60.56;81904.34;5156132;27;20664;-70
2022/05/13 05:10:25;;;;;;;17.25;16.45;;;;;;;-141.02;58.79;81943.19;5156508;27;20235;-70
2022/05/13 05:12:55;;;;;;;17.15;16.45;;;;;;;-141.02;58.50;81950.97;5156081;27;20664;-70
2022/05/13 05:15:22;;;;;;;16.88;16.17;;;;;;;-141.02;56.88;81749.00;5156418;27;20278;-70
2022/05/13 05:17:49;;;;;;;17.00;16.20;;;;;;;-141.02;57.52;81892.72;5155992;27;20274;-70
2022/05/13 05:20:19;;;;;;;16.83;16.05;;;;;;;-141.02;59.77;81958.72;5156311;27;20680;-70
2022/05/13 05:22:46;;;;;;;17.25;16.45;;;;;;;-141.02;62.49;82020.88;5156311;27;20210;-69
2022/05/13 05:25:14;;;;;;;17.08;16.38;;;;;;;-141.02;66.08;82059.72;5155908;27;20196;-70
2022/05/13 05:27:41;;;;;;;17.15;16.45;;;;;;;-141.02;68.70;82071.38;5156066;27;20221;-70
2022/05/13 05:30:11;;;;;;;17.10;16.40;;;;;;;-141.02;69.79;82065.53;5155769;27;20226;-70
2022/05/13 05:32:38;;;;;;;16.95;16.15;;;;;;;-141.02;69.09;82098.56;5155846;27;20233;-71
2022/05/13 05:35:07;;;;;;;16.60;15.90;;;;;;;-141.02;72.21;82123.81;5156026;27;20184;-70
2022/05/13 05:37:36;;;;;;;16.30;15.60;;;;;;;-141.02;75.32;82141.28;5155621;27;20654;-71
2022/05/13 05:40:04;;;;;;;16.23;15.55;;;;;;;-141.02;76.54;82131.56;5155599;27;20282;-70
2022/05/13 05:42:31;;;;;;;16.50;15.80;;;;;;;-141.02;83.12;82156.81;5155804;27;20275;-70
2022/05/13 05:44:58;;;;;;;16.77;16.08;;;;;;;-141.02;87.47;82230.63;5155803;27;20223;-70
2022/05/13 05:47:25;;;;;;;16.33;15.63;;;;;;;-141.02;84.53;82222.84;5155762;27;20274;-70
2022/05/13 05:49:52;;;;;;;16.05;15.35;;;;;;;-141.02;89.42;82265.56;5155854;27;20314;-71
2022/05/13 05:52:19;;;;;;;16.15;15.45;;;;;;;-141.02;89.87;82265.56;5155671;27;20231;-69
2022/05/13 05:57:32;;;;;;;16.38;15.68;;;;;;;-141.02;88.18;82230.63;5155595;27;20205;-70
2022/05/13 06:00:00;;;;;;;16.88;16.17;;;;;;;-141.02;82.32;82201.50;5155436;27;20282;-70
2022/05/13 06:02:28;;;;;;;16.58;15.88;;;;;;;-141.02;84.74;82232.56;5155517;27;20195;-70
2022/05/13 06:04:55;;;;;;;16.63;15.93;;;;;;;-141.02;80.98;82201.50;5155393;27;20223;-70
2022/05/13 06:07:22;;;;;;;16.70;16.00;;;;;;;-141.02;81.01;82195.66;5155396;27;20633;-70
2022/05/13 06:09:51;;;;;;;16.55;15.85;;;;;;;-141.02;79.40;82162.66;5155232;27;20246;-70
2022/05/13 06:12:18;;;;;;;16.50;15.80;;;;;;;-141.02;78.46;82154.88;5155262;27;20191;-70
2022/05/13 06:14:45;;;;;;;16.95;16.17;;;;;;;-141.02;76.52;82131.56;5155222;27;20625;-70
2022/05/13 06:17:12;;;;;;;17.30;16.50;;;;;;;-141.02;72.29;81993.69;5155178;27;20223;-70
2022/05/13 06:19:39;;;;;;;17.17;16.38;;;;;;;-141.02;75.61;82098.56;5155156;27;20274;-70
2022/05/13 06:22:06;;;;;;;16.75;15.95;;;;;;;-141.02;75.32;82119.91;5155034;27;20275;-70
2022/05/13 06:24:33;;;;;;;16.45;15.75;;;;;;;-141.02;73.61;82110.22;5154952;27;20692;-70
2022/05/13 06:27:01;;;;;;;16.58;15.88;;;;;;;-141.02;74.62;82149.06;5155269;27;20191;-70
2022/05/13 06:29:28;;;;;;;16.60;15.90;;;;;;;-141.02;71.49;82110.22;5154120;27;20237;-70
2022/05/13 06:31:58;;;;;;;16.38;15.68;;;;;;;-141.02;73.64;82079.13;5154862;27;20283;-70
2022/05/13 06:34:26;;;;;;;16.35;15.65;;;;;;;-141.02;69.58;82044.19;5154458;27;20226;-70
2022/05/13 06:36:53;;;;;;;16.35;15.65;;;;;;;-141.02;71.69;82040.28;5154785;27;20270;-70
2022/05/13 06:39:20;;;;;;;16.67;15.98;;;;;;;-141.02;69.29;82051.94;5154689;27;20278;-71
2022/05/13 06:41:47;;;;;;;16.50;15.80;;;;;;;-141.02;70.67;82051.94;5154418;27;20283;-70
2022/05/13 06:44:18;;;;;;;16.60;15.90;;;;;;;-141.02;64.59;81987.88;5154342;27;20662;-70
2022/05/13 06:46:47;;;;;;;16.40;15.70;;;;;;;-141.02;65.72;82009.22;5154336;27;20188;-70
2022/05/13 06:49:14;;;;;;;16.70;16.00;;;;;;;-141.02;62.77;81917.94;5154527;27;20693;-69
2022/05/13 06:51:43;;;;;;;16.33;15.63;;;;;;;-141.02;63.40;81931.53;5154509;27;20283;-70
2022/05/13 06:54:11;;;;;;;16.73;16.02;;;;;;;-141.02;64.92;81968.44;5154404;27;20751;-70
2022/05/13 06:56:41;;;;;;;17.00;16.30;;;;;;;-141.02;63.85;81925.72;5154403;27;20195;-70
2022/05/13 06:59:09;;;;;;;17.27;16.55;;;;;;;-141.02;64.57;81888.81;5154486;27;20234;-70
2022/05/13 07:01:38;;;;;;;17.27;16.58;;;;;;;-141.02;62.10;81875.22;5154324;27;20219;-70
2022/05/13 07:04:05;;;;;;;17.17;16.48;;;;;;;-141.02;61.94;81877.19;5154314;27;20188;-70
2022/05/13 07:06:32;;;;;;;17.33;16.58;;;;;;;-141.02;61.01;81826.69;5154258;27;20231;-70
2022/05/13 07:08:59;;;;;;;16.92;16.23;;;;;;;-141.02;59.71;81783.97;5154373;27;20234;-70
2022/05/13 07:11:27;;;;;;;17.08;16.38;;;;;;;-141.02;61.14;81816.97;5153923;27;20231;-70
2022/05/13 07:13:54;;;;;;;16.23;15.52;;;;;;;-141.02;61.05;81667.47;5154391;27;20196;-70
2022/05/13 07:16:21;;;;;;;16.50;15.80;;;;;;;-141.02;58.78;81780.09;5154157;27;20227;-70
2022/05/13 07:18:49;;;;;;;16.42;15.73;;;;;;;-141.02;60.36;81760.66;5154100;27;20282;-70
2022/05/13 07:21:17;;;;;;;16.35;15.65;;;;;;;-141.02;58.11;81671.34;5153842;27;20199;-70
2022/05/13 07:23:44;;;;;;;16.25;15.55;;;;;;;-141.02;58.01;81636.38;5154069;27;20627;-69
2022/05/13 07:26:12;;;;;;;16.23;15.52;;;;;;;-141.02;56.65;81669.41;5154055;27;20188;-69
2022/05/13 07:28:39;;;;;;;16.30;15.60;;;;;;;-141.02;58.28;81661.63;5153647;27;20272;-70
2022/05/13 07:31:07;;;;;;;16.45;15.75;;;;;;;-141.02;57.70;81620.84;5153934;27;20230;-71
2022/05/13 07:33:34;;;;;;;16.20;15.50;;;;;;;-141.02;55.80;81566.47;5153581;27;20238;-70
2022/05/13 07:36:04;;;;;;;16.77;16.08;;;;;;;-141.02;54.27;81547.06;5153958;27;20227;-70
2022/05/13 07:38:31;;;;;;;16.50;15.80;;;;;;;-141.02;54.38;81521.81;5153894;27;20219;-70
2022/05/13 07:41:16;;;;;;;16.58;15.88;;;;;;;-141.02;52.79;81473.28;5157304;27;20196;-70
2022/05/13 07:43:44;;;;;;;17.25;16.55;;;;;;;-141.02;52.07;81438.34;5157953;27;20323;-73
2022/05/13 07:46:11;;;;;;;16.77;16.08;;;;;;;-141.02;53.70;81502.41;5158052;27;20226;-70
2022/05/13 07:48:39;;;;;;;16.52;15.82;;;;;;;-141.02;54.38;81473.28;5157968;27;20673;-70
2022/05/13 07:51:08;;;;;;;17.25;16.55;;;;;;;-141.02;54.62;81442.22;5157728;27;20649;-70
2022/05/13 07:53:36;;;;;;;16.70;16.00;;;;;;;-141.02;53.14;81215.06;5158742;27;20231;-70
2022/05/13 07:56:04;;;;;;;16.83;16.13;;;;;;;-141.02;54.71;81562.59;5157971;27;20235;-69
2022/05/13 07:58:31;;;;;;;17.08;16.38;;;;;;;-141.02;54.09;81533.47;5157541;27;20199;-70
2022/05/13 08:01:00;;;;;;;16.85;16.17;;;;;;;-141.02;51.22;81440.28;5157905;27;20196;-68
2022/05/13 08:03:30;;;;;;;17.23;16.52;;;;;;;-141.02;53.04;81461.63;5157484;27;20196;-69
2022/05/13 08:06:02;;;;;;;16.98;16.27;;;;;;;-141.02;51.95;81415.03;5157364;27;20665;-68
2022/05/13 08:08:36;;;;;;;17.20;16.50;;;;;;;-141.02;51.34;81407.25;5157595;27;20571;-69
2022/05/13 08:11:06;;;;;;;17.80;17.10;;;;;;;-141.02;52.36;81283.00;5157367;27;20274;-70
2022/05/13 08:13:34;;;;;;;17.15;16.45;;;;;;;-141.02;51.64;81350.97;5157531;27;20707;-70
2022/05/13 08:16:02;;;;;;;17.98;17.27;;;;;;;-141.02;51.15;81385.91;5157575;27;20192;-70
2022/05/13 08:18:29;;;;;;;17.88;17.17;;;;;;;-141.02;49.34;81271.34;5157188;27;20733;-70
2022/05/13 08:20:56;;;;;;;17.75;17.05;;;;;;;-141.02;48.88;81197.56;5157096;27;20196;-71
2022/05/13 08:23:24;;;;;;;17.75;17.05;;;;;;;-141.02;48.93;81211.16;5157461;27;20223;-69
2022/05/13 08:25:52;;;;;;;17.60;16.90;;;;;;;-141.02;49.76;81220.88;5157392;27;20572;-70
2022/05/13 08:28:22;;;;;;;16.95;16.25;;;;;;;-141.02;47.71;81081.09;5157002;27;20661;-70
2022/05/13 08:30:50;;;;;;;16.98;16.27;;;;;;;-141.02;48.65;81139.34;5157335;27;20230;-69
2022/05/13 08:33:18;;;;;;;17.30;16.60;;;;;;;-141.02;50.65;81290.78;5156705;27;20283;-68
2022/05/13 08:35:47;;;;;;;17.35;16.65;;;;;;;-141.02;48.66;81242.22;5157395;27;20204;-69
2022/05/13 08:38:15;;;;;;;17.15;16.45;;;;;;;-141.02;52.22;81283.00;5156801;27;20196;-70
2022/05/13 08:41:09;;;;;;;17.00;16.30;;;;;;;-141.02;47.76;81131.56;5157112;27;20277;-70
2022/05/13 08:43:40;;;;;;;17.00;16.30;;;;;;;-141.02;49.22;81158.75;5156751;27;20223;-69
2022/05/13 08:46:26;;;;;;;16.67;15.98;;;;;;;-141.02;48.82;81201.47;5157049;27;20230;-69
2022/05/13 08:48:56;;;;;;;16.83;16.13;;;;;;;-141.02;48.21;81139.34;5156975;27;20212;-69
2022/05/13 08:51:31;;;;;;;17.10;16.40;;;;;;;-141.02;49.77;81127.69;5156061;27;20250;-69
2022/05/13 08:54:06;;;;;;;17.08;16.38;;;;;;;-141.02;48.58;81182.03;5156911;27;20191;-69
2022/05/13 08:56:36;;;;;;;16.95;16.25;;;;;;;-141.02;47.65;81081.09;5156477;27;20226;-69
2022/05/13 08:59:08;;;;;;;16.30;15.70;;;;;;;-141.02;47.67;81063.63;5156430;27;20195;-69
2022/05/13 09:01:41;;;;;;;16.48;15.77;;;;;;;-141.02;46.48;80989.84;5156684;27;20192;-70
2022/05/13 09:04:12;;;;;;;16.33;15.73;;;;;;;-141.02;47.08;81024.78;5156368;27;20688;-69
2022/05/13 09:06:45;;;;;;;17.55;16.85;;;;;;;-141.02;45.28;80945.19;5156574;27;20245;-70
2022/05/13 09:09:13;;;;;;;17.27;16.58;;;;;;;-141.02;44.93;80960.72;5156201;27;20283;-69
2022/05/13 09:11:51;;;;;;;16.88;16.17;;;;;;;-141.02;45.65;80927.72;5156468;27;20582;-69
2022/05/13 09:14:29;;;;;;;16.75;16.05;;;;;;;-141.02;45.33;80929.66;5156486;27;20219;-69
2022/05/13 09:17:14;;;;;;;16.83;16.13;;;;;;;-141.02;46.54;80941.31;5156398;27;20201;-69
2022/05/13 09:19:53;;;;;;;16.42;15.80;;;;;;;-141.02;44.32;80871.41;5156939;27;20271;-69
2022/05/13 09:22:20;;;;;;;16.98;16.27;;;;;;;-141.02;44.28;80888.88;5156320;27;20202;-69
2022/05/13 09:24:47;;;;;;;17.27;16.58;;;;;;;-141.02;45.13;80943.25;5155948;27;20192;-70
2022/05/13 09:27:16;;;;;;;16.52;15.88;;;;;;;-141.02;43.95;80908.31;5156090;27;20196;-69
2022/05/13 09:29:45;;;;;;;16.45;15.85;;;;;;;-141.02;43.62;80822.88;5156069;27;20288;-69
2022/05/13 09:32:16;;;;;;;16.65;15.95;;;;;;;-141.02;43.80;80879.19;5155758;27;20242;-70
2022/05/13 09:34:50;;;;;;;16.42;15.73;;;;;;;-141.02;43.70;80786.00;5155891;27;20315;-69
2022/05/13 09:37:21;;;;;;;16.30;15.60;;;;;;;-141.02;43.11;80754.94;5155689;27;20559;-70
2022/05/13 09:39:51;;;;;;;16.67;15.98;;;;;;;-141.02;42.67;80704.47;5155983;27;20191;-70
2022/05/13 09:42:34;;;;;;;16.63;15.93;;;;;;;-141.02;42.28;80716.13;5155860;27;20188;-70
2022/05/13 09:45:15;;;;;;;16.75;16.05;;;;;;;-141.02;42.38;80677.28;5155899;27;20260;-69
2022/05/13 09:47:43;;;;;;;16.77;16.08;;;;;;;-141.02;43.16;80735.53;5155880;27;20377;-68
2022/05/13 09:50:23;;;;;;;16.88;16.17;;;;;;;-141.02;43.69;80747.19;5155392;27;20224;-69
2022/05/13 09:52:51;;;;;;;16.23;15.55;;;;;;;-141.02;42.50;80714.16;5155976;27;20180;-71
2022/05/13 09:55:25;;;;;;;16.80;16.10;;;;;;;-141.02;43.62;80756.88;5155686;27;20196;-70
2022/05/13 09:57:54;;;;;;;16.73;16.02;;;;;;;-141.02;42.94;80718.06;5155634;27;20205;-70
2022/05/13 10:00:29;;;;;;;16.80;16.10;;;;;;;-141.02;42.23;80721.94;5156077;27;20195;-72
2022/05/13 10:03:18;;;;;;;16.70;16.00;;;;;;;-141.02;44.59;80782.13;5154709;27;20220;-69
2022/05/13 10:05:45;;;;;;;16.98;16.27;;;;;;;-141.02;43.03;80731.66;5155409;27;20673;-71
2022/05/13 10:08:18;;;;;;;16.52;15.82;;;;;;;-141.02;42.84;80704.47;5155385;27;20196;-70
2022/05/13 10:13:59;;;;;;;17.23;16.52;;;;;;;-141.02;42.43;80657.88;5155595;27;20176;-70
2022/05/13 10:16:33;;;;;;;17.17;16.48;;;;;;;-141.02;43.29;80675.34;5155275;27;20184;-70
2022/05/13 10:19:06;;;;;;;16.35;15.65;;;;;;;-141.02;43.44;80646.22;5155190;27;20267;-69
2022/05/13 10:21:41;;;;;;;17.30;16.60;;;;;;;-141.02;42.03;80566.66;5155182;27;20191;-71
2022/05/13 10:24:30;;;;;;;16.90;16.20;;;;;;;-141.02;43.47;80591.88;5155053;27;20266;-70
2022/05/13 10:26:59;;;;;;;16.67;15.98;;;;;;;-141.02;43.03;80727.75;5154984;27;20184;-69
2022/05/13 10:29:32;;;;;;;16.45;15.75;;;;;;;-141.02;42.58;80622.94;5154565;27;20713;-69
2022/05/13 10:32:02;;;;;;;16.60;15.90;;;;;;;-141.02;43.46;80661.75;5154897;27;20626;-69
2022/05/13 10:34:35;;;;;;;16.50;15.80;;;;;;;-141.02;44.43;80694.75;5154694;27;20381;-70
2022/05/13 10:37:09;;;;;;;16.98;16.27;;;;;;;-141.02;43.59;80619.06;5154610;27;20713;-70
2022/05/13 10:39:44;;;;;;;17.65;16.85;;;;;;;-141.02;42.77;80669.53;5154488;27;20641;-69
2022/05/13 10:42:19;;;;;;;17.15;16.35;;;;;;;-141.02;42.92;80671.47;5154390;27;20187;-71
2022/05/13 10:44:55;;;;;;;17.50;16.70;;;;;;;-141.02;42.70;80619.06;5154707;27;20274;-69
2022/05/13 10:47:29;;;;;;;17.48;16.67;;;;;;;-141.02;42.37;80642.34;5154632;27;20262;-71
2022/05/13 10:49:56;;;;;;;17.85;17.05;;;;;;;-141.02;43.38;80675.34;5154305;27;20303;-68
2022/05/13 10:52:41;;;;;;;17.42;16.63;;;;;;;-141.02;42.03;80537.53;5154205;27;20235;-69
2022/05/13 10:55:16;;;;;;;17.58;16.77;;;;;;;-141.02;41.65;80572.47;5154184;27;20564;-69
2022/05/13 10:57:53;;;;;;;17.02;16.27;;;;;;;-141.02;44.55;80659.81;5154498;27;20211;-70
2022/05/13 11:00:30;;;;;;;16.75;16.05;;;;;;;-141.02;43.06;80533.66;5154143;27;20270;-69
2022/05/13 11:03:34;;;;;;;16.98;16.17;;;;;;;-141.02;41.80;80597.69;5154349;27;20230;-70
2022/05/13 11:06:14;;;;;;;16.73;16.00;;;;;;;-141.02;43.11;80638.47;5154104;27;20271;-69
2022/05/13 11:08:52;;;;;;;16.90;16.10;;;;;;;-141.02;43.70;80630.69;5154256;27;20283;-70
2022/05/13 11:11:29;;;;;;;16.48;15.77;;;;;;;-141.02;43.04;80576.34;5153920;27;20250;-69
2022/05/13 11:14:07;;;;;;;16.85;16.05;;;;;;;-141.02;43.46;80584.13;5153586;27;20279;-71
2022/05/13 11:16:48;;;;;;;16.92;16.13;;;;;;;-141.02;42.60;80518.13;5153916;27;20188;-71
2022/05/13 11:19:26;;;;;;;17.00;16.20;;;;;;;-141.02;42.44;80591.88;5153920;27;20227;-70
2022/05/13 11:22:01;;;;;;;17.75;16.85;;;;;;;-141.02;42.62;80574.41;5154116;27;20266;-69
2022/05/13 11:27:42;;;;;;;17.17;16.38;;;;;;;-141.02;42.54;80512.28;5154403;27;20187;-69
2022/05/13 11:30:12;;;;;;;17.23;16.42;;;;;;;-141.02;42.12;80533.66;5153615;27;20215;-69